Terminal Aerodrome Forecast
Issued by NWS Austin/San Antonio, TX

Home | Current Version | Previous Version | Text Only | Print | Product List | Glossary On
Versions: 1 2 3 4 5 6 7 8 9 10 11 12 13 14 15 16 17 18
114
FTUS44 KEWX 212320
TAFSAT
TAF
KSAT 212320Z 2200/2306 13008KT P6SM SCT060
     FM221000 15004KT P6SM BKN015
     FM221600 17006KT P6SM SCT030=

USA.gov is the U.S. government's official web portal to all federal, state and local government web resources and services.